Time;durP1;ratioP1;P1;durP2;ratioP2;P2;SDS_P1;SDS_P2;PMS_P1;PMS_P2;Temp;Humidity;BMP_temperature;BMP_pressure;BME280_temperature;BME280_humidity;BME280_pressure;Samples;Min_cycle;Max_cycle;Signal;HPM_P1;HPM_P2
2022/01/13 00:00:40;;;;;;;17.30;9.50;;;16.70;45.40;;;;;;5018580;28;45216;-85
2022/01/13 00:03:12;;;;;;;18.90;10.00;;;17.00;46.40;;;;;;5015052;28;45114;-85
2022/01/13 00:05:42;;;;;;;17.52;9.25;;;17.50;51.50;;;;;;5023592;28;44907;-85
2022/01/13 00:08:15;;;;;;;19.67;10.32;;;16.90;46.20;;;;;;5024310;28;48440;-85
2022/01/13 00:10:46;;;;;;;18.25;10.25;;;16.60;45.40;;;;;;5023146;28;45391;-85
2022/01/13 00:13:23;;;;;;;17.48;10.10;;;16.80;45.10;;;;;;5024672;28;45222;-86
2022/01/13 00:16:22;;;;;;;17.00;9.45;;;16.80;45.10;;;;;;5023195;28;44736;-85
2022/01/13 00:19:19;;;;;;;18.75;9.43;;;16.60;48.70;;;;;;5012946;28;45436;-85
2022/01/13 00:21:58;;;;;;;17.45;10.50;;;15.40;44.60;;;;;;5008638;28;45408;-85
2022/01/13 00:24:31;;;;;;;19.50;9.80;;;16.80;45.80;;;;;;5023402;28;45271;-86
2022/01/13 00:27:11;;;;;;;20.02;10.63;;;17.00;46.20;;;;;;5008921;28;45215;-85
2022/01/13 00:32:32;;;;;;;21.33;10.80;;;16.90;47.60;;;;;;5021752;28;44854;-86
2022/01/13 00:35:01;;;;;;;19.80;10.40;;;16.70;45.00;;;;;;5006335;28;44747;-86
2022/01/13 00:37:30;;;;;;;18.77;10.60;;;17.00;46.10;;;;;;5018903;28;45172;-86
2022/01/13 00:40:03;;;;;;;19.42;10.32;;;16.70;45.80;;;;;;5024659;28;45672;-86
2022/01/13 00:45:19;;;;;;;21.42;10.57;;;16.70;45.80;;;;;;5011654;28;46251;-86
2022/01/13 00:47:52;;;;;;;19.90;11.13;;;18.90;49.40;;;;;;5006251;28;45279;-86
2022/01/13 00:50:25;;;;;;;19.67;10.93;;;16.70;44.80;;;;;;5009846;28;46932;-86
2022/01/13 00:56:05;;;;;;;20.45;11.50;;;16.70;44.90;;;;;;5005634;28;45257;-86
2022/01/13 00:58:37;;;;;;;19.42;10.95;;;16.90;46.30;;;;;;5004692;28;45103;-86
2022/01/13 01:01:12;;;;;;;19.52;10.27;;;16.90;46.00;;;;;;5022710;28;47114;-86
2022/01/13 01:03:48;;;;;;;19.27;11.18;;;16.70;44.70;;;;;;5023733;28;44834;-86
2022/01/13 01:09:00;;;;;;;17.00;10.18;;;17.20;50.90;;;;;;5019116;28;44821;-86
2022/01/13 01:11:33;;;;;;;18.60;10.38;;;16.80;45.90;;;;;;5022077;28;46756;-85
2022/01/13 01:14:07;;;;;;;17.00;10.02;;;16.90;45.00;;;;;;5022790;28;45241;-86
2022/01/13 01:16:38;;;;;;;17.08;10.48;;;16.70;44.80;;;;;;5010996;28;45293;-86
2022/01/13 01:19:09;;;;;;;17.02;9.93;;;16.90;46.10;;;;;;5021423;28;45425;-86
2022/01/13 01:27:21;;;;;;;17.13;10.25;;;16.70;44.90;;;;;;5007849;28;45407;-86
2022/01/13 01:29:56;;;;;;;18.92;9.82;;;16.70;44.90;;;;;;5023628;28;45307;-86
2022/01/13 01:32:31;;;;;;;15.52;9.45;;;16.80;51.30;;;;;;5021505;28;45787;-86
2022/01/13 01:35:03;;;;;;;18.05;9.88;;;16.80;46.90;;;;;;5023176;28;45240;-86
2022/01/13 01:37:32;;;;;;;17.67;9.88;;;16.70;46.10;;;;;;5023423;28;45222;-86
2022/01/13 01:40:04;;;;;;;14.65;9.20;;;16.70;44.90;;;;;;5024206;28;44993;-86
2022/01/13 01:42:38;;;;;;;14.80;9.10;;;16.70;45.40;;;;;;5018929;28;45721;-86
2022/01/13 01:45:16;;;;;;;14.80;9.02;;;16.70;44.90;;;;;;5022389;28;46229;-85
2022/01/13 01:47:54;;;;;;;15.43;9.27;;;16.90;45.00;;;;;;5003923;28;45266;-86
2022/01/13 01:50:34;;;;;;;14.77;8.77;;;16.70;44.60;;;;;;5022944;28;44966;-86
2022/01/13 01:53:16;;;;;;;16.08;9.75;;;16.80;44.70;;;;;;5022145;28;45997;-86
2022/01/13 01:55:54;;;;;;;15.25;9.18;;;16.90;45.50;;;;;;5022480;28;45284;-85
2022/01/13 01:58:25;;;;;;;14.07;8.90;;;16.70;44.40;;;;;;5021568;28;45377;-86
2022/01/13 02:01:08;;;;;;;14.20;9.20;;;15.30;46.70;;;;;;5023280;28;45208;-86
2022/01/13 02:03:41;;;;;;;13.60;8.68;;;16.70;47.10;;;;;;5016730;28;45544;-87
2022/01/13 02:09:10;;;;;;;18.70;10.07;;;16.70;44.40;;;;;;5021107;28;44814;-86
2022/01/13 02:11:44;;;;;;;17.42;9.60;;;16.70;45.10;;;;;;5023236;28;45391;-86
2022/01/13 02:14:33;;;;;;;15.10;9.70;;;16.50;44.20;;;;;;5022332;28;46556;-86
2022/01/13 02:19:47;;;;;;;15.95;9.48;;;16.70;45.60;;;;;;5014894;28;45827;-86
2022/01/13 02:22:24;;;;;;;14.65;9.00;;;16.90;44.80;;;;;;5019459;28;44777;-86
2022/01/13 02:24:53;;;;;;;15.05;8.93;;;16.80;50.40;;;;;;5022590;28;46309;-85
2022/01/13 02:27:27;;;;;;;14.23;9.93;;;16.70;47.90;;;;;;5021676;28;45188;-86
2022/01/13 02:29:58;;;;;;;16.13;9.77;;;16.90;44.70;;;;;;5022604;28;44831;-86
2022/01/13 02:32:38;;;;;;;14.65;9.38;;;16.30;45.20;;;;;;5023174;28;44864;-85
2022/01/13 02:35:11;;;;;;;16.17;9.45;;;16.90;44.40;;;;;;5022952;28;47390;-85
2022/01/13 02:37:47;;;;;;;15.60;10.10;;;17.00;44.70;;;;;;5022954;28;45109;-89
2022/01/13 02:40:27;;;;;;;15.63;9.75;;;16.70;44.20;;;;;;5023356;28;45142;-86
2022/01/13 02:42:59;;;;;;;16.50;9.85;;;16.70;46.20;;;;;;5024799;28;44999;-85
2022/01/13 02:45:33;;;;;;;14.73;9.43;;;16.90;47.90;;;;;;5026649;28;47521;-86
2022/01/13 02:48:27;;;;;;;16.58;9.93;;;18.90;46.60;;;;;;5026529;28;44688;-85
2022/01/13 02:50:57;;;;;;;16.38;9.82;;;17.30;48.10;;;;;;5018802;28;45225;-85
2022/01/13 02:53:40;;;;;;;16.60;9.57;;;15.20;43.10;;;;;;5026699;28;45467;-86
2022/01/13 02:56:33;;;;;;;15.30;9.45;;;16.80;44.20;;;;;;5025131;28;45219;-86
2022/01/13 02:59:02;;;;;;;17.92;10.18;;;16.70;47.20;;;;;;5007191;28;45100;-87
2022/01/13 03:01:33;;;;;;;15.15;9.13;;;16.80;47.40;;;;;;5025595;28;45122;-88
2022/01/13 03:04:09;;;;;;;17.10;10.27;;;17.90;46.80;;;;;;5025880;28;44772;-86
2022/01/13 03:06:39;;;;;;;17.33;10.25;;;16.60;44.40;;;;;;5024988;28;47653;-86
2022/01/13 03:09:17;;;;;;;16.45;9.93;;;16.60;44.10;;;;;;5012646;28;45251;-86
2022/01/13 03:11:47;;;;;;;15.05;9.57;;;18.50;47.50;;;;;;5025950;28;45194;-86
2022/01/13 03:14:20;;;;;;;16.98;10.10;;;16.80;44.10;;;;;;5026411;28;45186;-86
2022/01/13 03:16:50;;;;;;;17.63;9.75;;;16.60;45.30;;;;;;5024817;28;45703;-85
2022/01/13 03:19:20;;;;;;;16.20;10.25;;;16.70;46.50;;;;;;5025755;28;45267;-86
2022/01/13 03:21:50;;;;;;;17.45;10.35;;;16.70;44.00;;;;;;5022823;28;45142;-86
2022/01/13 03:24:23;;;;;;;18.63;11.52;;;16.70;44.90;;;;;;5010523;28;45242;-86
2022/01/13 03:27:19;;;;;;;18.20;11.18;;;16.70;45.50;;;;;;5024009;28;45730;-86
2022/01/13 03:29:48;;;;;;;17.13;9.90;;;16.70;44.00;;;;;;5022477;28;45405;-85
2022/01/13 03:32:22;;;;;;;17.08;10.40;;;17.10;44.80;;;;;;5026870;28;45070;-85
2022/01/13 03:34:51;;;;;;;18.58;11.95;;;16.60;43.70;;;;;;5024905;28;45201;-85
2022/01/13 03:37:19;;;;;;;20.42;12.50;;;16.60;45.20;;;;;;5023521;28;45488;-84
2022/01/13 03:39:53;;;;;;;18.38;11.77;;;16.60;44.40;;;;;;5022888;28;45364;-85
2022/01/13 03:42:21;;;;;;;20.83;12.05;;;16.60;48.70;;;;;;5019245;28;45817;-85
2022/01/13 03:44:54;;;;;;;20.23;12.35;;;16.50;45.10;;;;;;5005093;28;45463;-85
2022/01/13 03:47:22;;;;;;;19.80;11.68;;;16.90;44.80;;;;;;5024017;28;46866;-85
2022/01/13 03:49:54;;;;;;;19.75;12.18;;;16.60;46.40;;;;;;5031755;28;45368;-85
2022/01/13 03:52:51;;;;;;;17.40;11.32;;;16.70;43.80;;;;;;5025095;28;44763;-85
2022/01/13 03:56:05;;;;;;;16.52;10.95;;;16.70;44.20;;;;;;5017167;28;45270;-85
2022/01/13 03:59:23;;;;;;;18.70;11.15;;;17.00;44.30;;;;;;5024577;28;47582;-87
2022/01/13 04:02:11;;;;;;;20.50;12.43;;;16.70;43.70;;;;;;5000505;28;44773;-86
2022/01/13 04:04:47;;;;;;;20.60;12.57;;;16.70;43.80;;;;;;5022201;28;44834;-86
2022/01/13 04:07:21;;;;;;;21.23;12.30;;;16.80;44.10;;;;;;5021565;28;45063;-86
2022/01/13 04:10:34;;;;;;;21.33;12.98;;;16.90;44.00;;;;;;5025018;28;47237;-87
2022/01/13 04:13:32;;;;;;;20.48;12.40;;;16.70;43.60;;;;;;5018453;28;44966;-86
2022/01/13 04:16:06;;;;;;;21.58;12.38;;;15.50;46.10;;;;;;5024725;28;44860;-86
2022/01/13 04:18:39;;;;;;;20.65;12.50;;;16.80;44.40;;;;;;5025005;28;45160;-86
2022/01/13 04:21:10;;;;;;;18.38;11.73;;;16.00;42.90;;;;;;5017140;28;48538;-86
2022/01/13 04:23:40;;;;;;;20.48;12.20;;;16.90;43.70;;;;;;5021376;28;45349;-86
2022/01/13 04:26:12;;;;;;;20.65;12.65;;;16.70;46.60;;;;;;5006439;28;45181;-86
2022/01/13 04:28:45;;;;;;;18.88;12.10;;;18.60;48.10;;;;;;5023586;28;44818;-86
2022/01/13 04:31:18;;;;;;;20.80;12.25;;;16.50;44.80;;;;;;5020926;28;46545;-86
2022/01/13 04:33:49;;;;;;;21.15;12.48;;;16.40;47.60;;;;;;5011959;28;45313;-86
2022/01/13 04:36:31;;;;;;;20.17;12.88;;;16.60;45.30;;;;;;5006327;28;45226;-86
2022/01/13 04:39:04;;;;;;;22.63;12.20;;;16.90;45.30;;;;;;5013574;28;45289;-86
2022/01/13 04:41:37;;;;;;;22.45;12.45;;;16.70;43.60;;;;;;5024919;28;45796;-86
2022/01/13 04:44:14;;;;;;;23.23;12.10;;;17.10;44.00;;;;;;5025119;28;45249;-86
2022/01/13 04:46:53;;;;;;;18.38;12.15;;;16.70;43.30;;;;;;5024793;28;46365;-86
2022/01/13 04:49:25;;;;;;;23.02;13.05;;;16.70;43.30;;;;;;5014232;28;44883;-86
2022/01/13 04:51:57;;;;;;;21.58;12.43;;;16.70;43.20;;;;;;5006338;28;47324;-86
2022/01/13 04:54:27;;;;;;;21.38;11.65;;;16.90;46.60;;;;;;5024354;28;45107;-86
2022/01/13 04:57:15;;;;;;;20.48;12.65;;;16.70;43.10;;;;;;5022117;28;45143;-86
2022/01/13 04:59:45;;;;;;;20.85;12.75;;;16.70;45.10;;;;;;5015262;28;44903;-86
2022/01/13 05:02:14;;;;;;;22.27;12.93;;;16.80;44.80;;;;;;5013518;28;45544;-87
2022/01/13 05:07:27;;;;;;;23.33;13.52;;;15.20;42.40;;;;;;5024831;28;44858;-85
2022/01/13 05:09:55;;;;;;;20.27;13.00;;;16.60;44.60;;;;;;5021369;28;45245;-86
2022/01/13 05:12:38;;;;;;;20.48;12.35;;;16.80;46.10;;;;;;5029567;28;46001;-87
2022/01/13 05:20:26;;;;;;;16.25;10.60;;;16.60;45.90;;;;;;5012457;28;46103;-83
2022/01/13 05:22:53;;;;;;;17.50;10.38;;;16.60;46.60;;;;;;5032257;28;46673;-83
2022/01/13 05:25:22;;;;;;;16.50;10.32;;;16.60;46.60;;;;;;5027251;28;46042;-83
2022/01/13 05:27:50;;;;;;;21.75;11.80;;;16.60;46.70;;;;;;5021351;28;44805;-83
2022/01/13 05:30:19;;;;;;;18.40;11.15;;;16.60;47.10;;;;;;5013146;28;45095;-83
2022/01/13 05:32:47;;;;;;;19.67;11.88;;;16.60;47.30;;;;;;5024012;28;47234;-83
2022/01/13 05:35:15;;;;;;;19.08;11.48;;;16.60;46.70;;;;;;5019124;28;45230;-83
2022/01/13 05:37:46;;;;;;;21.02;11.27;;;16.70;47.40;;;;;;5020825;28;45321;-83
2022/01/13 05:40:16;;;;;;;18.00;11.18;;;16.60;47.00;;;;;;5017463;28;44907;-83
2022/01/13 05:42:45;;;;;;;17.08;10.35;;;16.60;46.60;;;;;;5020179;28;47716;-82
2022/01/13 05:45:17;;;;;;;17.58;10.30;;;16.60;46.80;;;;;;5003514;28;45307;-82
2022/01/13 05:47:45;;;;;;;19.25;11.15;;;16.60;46.60;;;;;;5020002;28;45218;-83
2022/01/13 05:50:16;;;;;;;20.00;11.10;;;16.80;47.30;;;;;;5019961;28;45214;-81
2022/01/13 05:52:51;;;;;;;19.65;11.50;;;16.60;46.20;;;;;;5020073;28;46914;-82
2022/01/13 05:55:18;;;;;;;19.95;11.48;;;16.60;46.50;;;;;;5022417;28;44976;-82
2022/01/13 05:57:47;;;;;;;19.45;10.25;;;16.60;46.60;;;;;;5006016;28;44939;-82
2022/01/13 06:00:18;;;;;;;21.85;11.70;;;16.60;46.90;;;;;;5018384;28;45578;-81
2022/01/13 06:02:52;;;;;;;17.70;10.75;;;16.60;47.00;;;;;;5017008;28;45252;-83
2022/01/13 06:05:25;;;;;;;19.77;11.15;;;16.60;47.40;;;;;;5025284;28;46170;-83
2022/01/13 06:07:54;;;;;;;18.13;10.32;;;16.50;46.30;;;;;;5031517;28;45107;-83
2022/01/13 06:10:24;;;;;;;18.02;11.00;;;17.00;50.70;;;;;;5023579;28;45202;-83
2022/01/13 06:13:06;;;;;;;18.38;10.38;;;16.90;53.20;;;;;;5023355;28;45312;-83
2022/01/13 06:15:41;;;;;;;16.42;10.02;;;16.70;47.10;;;;;;5006234;28;45293;-83
2022/01/13 06:18:13;;;;;;;18.15;10.88;;;16.60;51.10;;;;;;5024072;28;45325;-83
2022/01/13 06:20:41;;;;;;;18.40;10.73;;;16.80;49.40;;;;;;5027621;28;45493;-82
2022/01/13 06:23:15;;;;;;;19.23;10.50;;;16.90;51.20;;;;;;5026660;28;45821;-82
2022/01/13 06:25:45;;;;;;;17.83;10.25;;;16.60;47.30;;;;;;5030082;28;45276;-83
2022/01/13 06:28:12;;;;;;;17.13;9.73;;;16.60;48.40;;;;;;5026029;28;45134;-82
2022/01/13 06:30:43;;;;;;;15.35;9.57;;;16.50;49.00;;;;;;5026022;28;44880;-83
2022/01/13 06:33:10;;;;;;;16.13;9.90;;;16.60;47.50;;;;;;5020054;28;46981;-83
2022/01/13 06:35:41;;;;;;;16.10;9.80;;;16.50;47.60;;;;;;5025881;28;45020;-82
2022/01/13 06:38:13;;;;;;;18.65;10.98;;;18.30;52.40;;;;;;5002781;28;45264;-81
2022/01/13 06:40:43;;;;;;;17.02;10.27;;;16.70;45.60;;;;;;5019579;28;45234;-81
2022/01/13 06:43:13;;;;;;;17.27;9.85;;;16.70;45.10;;;;;;5014645;28;45781;-83
2022/01/13 06:45:42;;;;;;;16.20;9.45;;;16.40;48.70;;;;;;5025537;28;46180;-84
2022/01/13 06:48:16;;;;;;;15.50;9.82;;;16.80;52.20;;;;;;5036910;28;45342;-82
2022/01/13 06:50:43;;;;;;;14.15;9.10;;;16.50;46.60;;;;;;5027891;28;45360;-80
2022/01/13 06:53:13;;;;;;;14.93;10.02;;;16.50;46.80;;;;;;5025102;28;46445;-85
2022/01/13 06:55:50;;;;;;;16.35;10.18;;;16.50;46.30;;;;;;5011147;28;44878;-85
2022/01/13 06:58:22;;;;;;;15.57;10.32;;;16.70;46.90;;;;;;5020413;28;46356;-84
2022/01/13 07:00:51;;;;;;;15.50;9.52;;;16.70;47.40;;;;;;5025412;28;45174;-83
2022/01/13 07:03:22;;;;;;;13.85;9.00;;;16.50;47.30;;;;;;5009048;28;46094;-83
2022/01/13 07:05:51;;;;;;;13.77;9.07;;;16.80;48.20;;;;;;4989364;28;44756;-82
2022/01/13 07:08:25;;;;;;;14.10;9.68;;;16.70;48.00;;;;;;5018324;28;44834;-84
2022/01/13 07:11:03;;;;;;;18.40;10.90;;;16.80;47.80;;;;;;5024652;28;44972;-83
2022/01/13 07:13:41;;;;;;;16.10;10.48;;;18.00;47.60;;;;;;5026515;28;47301;-82
2022/01/13 07:16:09;;;;;;;13.63;9.02;;;16.70;47.90;;;;;;5025520;28;45388;-85
2022/01/13 07:24:15;;;;;;;13.63;8.70;;;16.70;51.90;;;;;;5017540;28;47352;-84
2022/01/13 07:29:25;;;;;;;14.13;9.07;;;15.70;46.10;;;;;;5024411;28;45164;-83
2022/01/13 07:31:55;;;;;;;14.10;8.85;;;16.70;50.00;;;;;;5008026;28;45178;-83
2022/01/13 07:34:22;;;;;;;13.13;8.55;;;16.70;47.40;;;;;;5007067;28;48176;-83
2022/01/13 07:36:51;;;;;;;12.70;8.73;;;16.70;47.00;;;;;;5021713;28;45312;-86
2022/01/13 07:39:23;;;;;;;13.48;9.18;;;16.70;47.00;;;;;;5018702;28;45320;-86
2022/01/13 07:41:55;;;;;;;13.40;8.57;;;16.70;47.20;;;;;;5020765;28;45472;-84
2022/01/13 07:44:32;;;;;;;15.00;8.98;;;16.80;47.10;;;;;;5005541;28;45440;-83
2022/01/13 07:47:02;;;;;;;14.25;8.88;;;16.80;47.00;;;;;;5025276;28;45501;-83
2022/01/13 07:49:34;;;;;;;13.13;8.80;;;16.80;47.10;;;;;;5025824;28;45413;-82
2022/01/13 07:52:02;;;;;;;13.88;9.20;;;16.70;47.10;;;;;;5033715;28;45436;-83
2022/01/13 07:54:32;;;;;;;13.80;8.30;;;16.80;49.20;;;;;;5024760;28;47016;-83
2022/01/13 07:57:01;;;;;;;11.75;8.18;;;16.80;47.10;;;;;;5021335;28;44740;-83
2022/01/13 07:59:30;;;;;;;14.00;9.35;;;16.80;47.00;;;;;;5021821;28;45184;-82
2022/01/13 08:01:59;;;;;;;13.38;8.50;;;16.70;47.40;;;;;;5022353;28;45111;-81
2022/01/13 08:04:26;;;;;;;12.90;7.90;;;16.70;47.00;;;;;;5013808;28;46506;-82
2022/01/13 08:06:54;;;;;;;13.27;8.73;;;16.70;48.10;;;;;;5026225;28;45445;-82
2022/01/13 08:09:21;;;;;;;14.63;8.70;;;16.80;47.30;;;;;;5029712;28;45227;-82
2022/01/13 08:11:55;;;;;;;13.20;8.43;;;16.70;47.10;;;;;;5020666;28;45062;-81
2022/01/13 08:14:29;;;;;;;12.23;8.23;;;16.70;47.20;;;;;;5004832;28;47537;-83
2022/01/13 08:17:00;;;;;;;13.68;8.52;;;16.70;46.90;;;;;;5016144;28;45237;-83
2022/01/13 08:22:15;;;;;;;13.23;8.40;;;17.00;48.50;;;;;;5025661;28;45171;-83
2022/01/13 08:24:43;;;;;;;12.63;7.88;;;16.70;46.80;;;;;;5024683;28;45311;-84
2022/01/13 08:27:19;;;;;;;14.10;8.93;;;16.70;52.10;;;;;;5002761;28;46069;-83
2022/01/13 08:29:47;;;;;;;12.48;8.18;;;16.20;46.10;;;;;;5020087;28;44855;-84
2022/01/13 08:32:24;;;;;;;12.43;8.25;;;18.90;58.50;;;;;;5031110;28;45530;-83
2022/01/13 08:34:57;;;;;;;13.00;8.38;;;16.80;47.00;;;;;;5015799;28;45451;-84
2022/01/13 08:37:25;;;;;;;13.27;8.38;;;16.80;47.70;;;;;;5025681;28;44912;-84
2022/01/13 08:39:55;;;;;;;13.63;8.88;;;16.80;50.00;;;;;;5024240;28;44754;-83
2022/01/13 08:42:37;;;;;;;12.73;8.15;;;16.80;46.90;;;;;;5021173;28;44832;-83
2022/01/13 08:45:07;;;;;;;13.20;8.35;;;16.80;46.70;;;;;;5023572;28;46722;-84
2022/01/13 08:47:35;;;;;;;15.20;8.65;;;16.70;47.00;;;;;;5024135;28;45186;-84
2022/01/13 08:50:07;;;;;;;15.20;8.85;;;17.00;47.90;;;;;;5023725;28;45163;-84
2022/01/13 08:52:44;;;;;;;13.77;8.80;;;17.00;49.60;;;;;;5007702;28;45296;-84
2022/01/13 08:55:12;;;;;;;12.82;8.20;;;17.70;52.80;;;;;;5024265;28;45638;-84
2022/01/13 08:57:44;;;;;;;14.70;8.30;;;16.90;48.00;;;;;;5023952;28;45173;-84
2022/01/13 09:00:14;;;;;;;16.40;8.63;;;16.70;47.20;;;;;;5025131;28;44804;-84
2022/01/13 09:02:48;;;;;;;13.40;7.85;;;17.00;47.40;;;;;;5023441;28;45044;-84
2022/01/13 09:05:18;;;;;;;13.20;8.57;;;15.90;46.90;;;;;;5022074;28;45490;-84
2022/01/13 09:07:51;;;;;;;13.50;8.60;;;16.70;50.20;;;;;;5023162;28;45388;-84
2022/01/13 09:10:21;;;;;;;12.60;7.70;;;16.80;46.70;;;;;;5018672;28;45325;-84
2022/01/13 09:13:00;;;;;;;13.48;7.88;;;16.80;48.30;;;;;;5027260;28;45324;-84
2022/01/13 09:15:35;;;;;;;12.38;7.95;;;16.90;50.80;;;;;;5032427;28;45565;-83
2022/01/13 09:18:10;;;;;;;12.98;7.88;;;17.50;48.00;;;;;;5019956;28;45063;-84
2022/01/13 09:20:38;;;;;;;14.63;7.93;;;16.70;48.90;;;;;;5020469;28;44796;-84
2022/01/13 09:23:10;;;;;;;11.75;6.90;;;16.70;53.00;;;;;;4994979;28;45186;-84
2022/01/13 09:25:44;;;;;;;13.85;8.05;;;16.90;46.70;;;;;;5028284;28;45499;-84
2022/01/13 09:28:16;;;;;;;10.88;7.05;;;16.40;48.10;;;;;;5022474;28;45774;-84
2022/01/13 09:30:44;;;;;;;12.38;7.15;;;16.80;50.10;;;;;;5031615;28;45126;-84
2022/01/13 09:33:13;;;;;;;13.43;6.60;;;17.90;48.30;;;;;;5023613;28;45057;-84
2022/01/13 09:35:49;;;;;;;11.07;6.78;;;16.70;46.70;;;;;;5022269;28;47566;-84
2022/01/13 09:38:16;;;;;;;11.35;6.63;;;17.00;53.20;;;;;;5015508;28;45173;-84
2022/01/13 09:40:45;;;;;;;13.45;7.57;;;16.80;48.00;;;;;;5023269;28;44962;-84
2022/01/13 09:43:23;;;;;;;12.75;7.50;;;16.70;47.40;;;;;;5009512;28;45125;-84
2022/01/13 09:45:52;;;;;;;13.57;7.47;;;16.70;46.70;;;;;;5042804;28;45506;-85
2022/01/13 09:48:21;;;;;;;12.13;7.00;;;18.40;49.40;;;;;;5022642;28;44798;-84
2022/01/13 09:50:59;;;;;;;11.27;7.07;;;16.70;48.20;;;;;;5031322;28;44774;-84
2022/01/13 09:53:29;;;;;;;11.98;7.60;;;16.70;46.80;;;;;;5030335;28;45146;-84
2022/01/13 09:55:58;;;;;;;10.30;6.55;;;17.00;47.00;;;;;;5023254;28;46732;-85
2022/01/13 09:58:31;;;;;;;11.98;6.97;;;16.70;48.90;;;;;;5005335;28;45265;-85
2022/01/13 10:00:59;;;;;;;12.13;7.50;;;18.60;50.70;;;;;;5022864;28;45042;-84
2022/01/13 10:03:28;;;;;;;11.55;7.10;;;16.80;48.80;;;;;;5028082;28;45307;-84
2022/01/13 10:05:58;;;;;;;10.10;6.80;;;16.80;50.30;;;;;;5031020;28;46563;-85
2022/01/13 10:08:43;;;;;;;10.48;6.65;;;16.60;47.10;;;;;;5006564;28;45239;-85
2022/01/13 10:11:45;;;;;;;11.20;6.47;;;16.80;48.80;;;;;;5016173;28;44830;-85
2022/01/13 10:16:23;;;;;;;12.77;6.97;;;16.80;46.70;;;;;;5022913;28;44899;-84
2022/01/13 10:17:16;;;;;;;10.88;6.72;;;16.70;46.80;;;;;;5021426;28;45552;-84
2022/01/13 10:19:47;;;;;;;11.68;7.05;;;16.80;47.40;;;;;;5022202;28;45165;-84
2022/01/13 10:22:19;;;;;;;12.20;7.65;;;16.70;46.90;;;;;;5021958;28;44682;-85
2022/01/13 10:24:54;;;;;;;15.10;7.85;;;16.80;48.80;;;;;;5030627;28;45242;-85
2022/01/13 10:27:43;;;;;;;13.57;7.97;;;16.50;46.80;;;;;;5022416;28;46047;-84
2022/01/13 10:30:18;;;;;;;15.45;8.57;;;17.00;46.50;;;;;;5019259;28;45520;-84
2022/01/13 10:32:54;;;;;;;19.30;9.32;;;16.90;49.10;;;;;;5005225;28;45190;-84
2022/01/13 10:35:30;;;;;;;14.30;9.20;;;16.70;44.50;;;;;;5027313;28;44764;-83
2022/01/13 10:38:02;;;;;;;15.48;9.05;;;16.80;44.50;;;;;;5020080;28;48027;-84
2022/01/13 10:40:40;;;;;;;14.05;8.52;;;16.70;46.00;;;;;;5021808;28;45278;-83
2022/01/13 10:43:12;;;;;;;13.52;8.43;;;16.70;44.40;;;;;;5025572;28;44743;-84
2022/01/13 10:45:52;;;;;;;14.25;9.35;;;16.80;48.00;;;;;;5021637;28;44863;-84
2022/01/13 10:48:26;;;;;;;16.05;9.10;;;16.70;44.00;;;;;;5022695;28;45486;-83
2022/01/13 10:50:57;;;;;;;14.73;9.13;;;16.70;43.90;;;;;;5031202;28;45067;-83
2022/01/13 10:53:31;;;;;;;14.55;8.50;;;18.20;48.30;;;;;;5005585;28;45176;-84
2022/01/13 10:58:52;;;;;;;15.68;9.27;;;16.60;45.20;;;;;;5002667;28;46989;-84
2022/01/13 11:01:34;;;;;;;17.42;9.68;;;16.70;51.30;;;;;;5001312;28;45316;-84
2022/01/13 11:04:04;;;;;;;15.23;9.27;;;16.80;43.90;;;;;;5025290;28;44894;-84
2022/01/13 11:06:37;;;;;;;16.27;8.88;;;16.60;50.40;;;;;;5025830;28;45139;-84
2022/01/13 11:09:17;;;;;;;15.35;9.07;;;17.80;45.80;;;;;;5035329;28;45538;-84
2022/01/13 11:11:49;;;;;;;14.73;9.18;;;18.50;45.70;;;;;;5035766;28;45422;-83
2022/01/13 11:14:24;;;;;;;15.18;9.30;;;16.60;44.20;;;;;;5025437;28;45258;-84
2022/01/13 11:16:55;;;;;;;14.32;8.38;;;16.90;45.20;;;;;;5031326;28;45166;-85
2022/01/13 11:19:25;;;;;;;13.93;8.10;;;16.90;47.40;;;;;;5029300;28;47564;-85
2022/01/13 11:21:54;;;;;;;12.52;7.43;;;17.10;44.40;;;;;;5031909;28;44653;-84
2022/01/13 11:24:25;;;;;;;12.82;7.57;;;16.80;48.80;;;;;;5025492;28;45229;-85
2022/01/13 11:27:03;;;;;;;11.57;6.65;;;18.20;47.00;;;;;;5025070;28;44958;-84
2022/01/13 11:29:37;;;;;;;11.88;7.18;;;16.70;44.90;;;;;;5024835;28;45594;-85
2022/01/13 11:32:13;;;;;;;10.05;6.57;;;16.70;45.10;;;;;;5024815;28;44751;-84
2022/01/13 11:34:47;;;;;;;11.15;6.53;;;16.70;45.90;;;;;;5025773;28;44791;-85
2022/01/13 11:37:19;;;;;;;12.43;7.20;;;16.70;44.30;;;;;;5009847;28;45162;-83
2022/01/13 11:39:50;;;;;;;9.80;6.07;;;16.70;44.00;;;;;;5025788;28;45701;-84
2022/01/13 11:42:21;;;;;;;9.23;6.40;;;18.40;52.50;;;;;;5024715;28;46281;-84
2022/01/13 11:45:12;;;;;;;10.82;5.90;;;16.70;47.90;;;;;;5041608;28;44911;-83
2022/01/13 11:47:49;;;;;;;9.48;5.97;;;17.10;48.20;;;;;;5038081;28;45213;-83
2022/01/13 11:50:23;;;;;;;10.65;6.38;;;18.00;50.70;;;;;;5024504;28;46784;-84
2022/01/13 11:52:53;;;;;;;9.43;6.00;;;16.70;49.70;;;;;;5007651;28;45211;-83
2022/01/13 11:55:26;;;;;;;9.07;5.75;;;16.80;48.10;;;;;;5024661;28;45154;-85
2022/01/13 11:58:31;;;;;;;11.93;6.80;;;16.90;46.60;;;;;;5033634;28;44996;-84
2022/01/13 12:01:12;;;;;;;10.57;6.93;;;15.70;44.80;;;;;;5025033;28;46580;-84
2022/01/13 12:03:52;;;;;;;9.25;6.00;;;17.50;45.30;;;;;;5006463;28;44829;-85
2022/01/13 12:06:42;;;;;;;9.82;6.35;;;16.70;44.00;;;;;;5020080;28;45226;-84
2022/01/13 12:09:11;;;;;;;10.13;6.20;;;16.70;44.00;;;;;;5024271;28;44783;-84
2022/01/13 12:11:50;;;;;;;10.02;6.20;;;16.10;44.50;;;;;;5018051;28;46095;-84
2022/01/13 12:14:46;;;;;;;10.52;6.22;;;16.60;44.40;;;;;;5011436;28;45159;-84
2022/01/13 12:17:26;;;;;;;9.32;5.65;;;17.00;43.80;;;;;;5023154;28;45020;-84
2022/01/13 12:20:03;;;;;;;8.20;5.68;;;16.40;43.20;;;;;;5024535;28;45434;-83
2022/01/13 12:23:14;;;;;;;9.02;5.85;;;16.60;45.50;;;;;;5024606;28;46747;-84
2022/01/13 12:25:50;;;;;;;8.95;5.65;;;16.70;43.40;;;;;;5018741;28;45250;-84
2022/01/13 12:28:23;;;;;;;9.02;5.90;;;16.70;43.60;;;;;;5010422;28;45308;-85
2022/01/13 12:30:52;;;;;;;8.60;5.43;;;18.80;52.20;;;;;;5033626;28;45371;-84
2022/01/13 12:33:31;;;;;;;6.80;4.88;;;16.70;44.10;;;;;;5031803;28;45811;-84
2022/01/13 12:36:24;;;;;;;7.32;4.93;;;17.40;44.90;;;;;;5030664;28;45327;-84
2022/01/13 12:39:02;;;;;;;6.47;4.60;;;16.70;44.20;;;;;;5032163;28;45167;-85
2022/01/13 12:41:32;;;;;;;8.68;5.05;;;18.00;46.80;;;;;;5030222;28;44911;-84
2022/01/13 12:45:27;;;;;;;6.38;4.85;;;16.70;46.70;;;;;;5036076;28;47363;-84
2022/01/13 12:47:04;;;;;;;6.38;4.57;;;16.70;44.50;;;;;;5025549;28;45329;-84
2022/01/13 12:49:40;;;;;;;6.95;4.63;;;16.60;44.60;;;;;;5021932;28;45145;-84
2022/01/13 12:52:11;;;;;;;9.18;5.35;;;17.00;45.50;;;;;;5031059;28;45292;-84
2022/01/13 12:54:48;;;;;;;7.60;4.60;;;16.90;48.00;;;;;;5023662;28;47582;-84
2022/01/13 12:57:22;;;;;;;7.72;4.70;;;16.80;46.30;;;;;;5023434;28;45389;-83
2022/01/13 12:59:56;;;;;;;8.60;4.65;;;16.80;44.40;;;;;;5014040;28;44718;-84
2022/01/13 13:02:35;;;;;;;7.45;4.78;;;16.80;44.40;;;;;;5028631;28;44935;-84
2022/01/13 13:05:03;;;;;;;7.35;5.03;;;16.80;46.50;;;;;;5025829;28;48021;-84
2022/01/13 13:07:45;;;;;;;7.65;5.07;;;17.10;47.50;;;;;;5028605;28;45533;-84
2022/01/13 13:10:20;;;;;;;7.50;5.05;;;16.80;44.90;;;;;;5025140;28;45306;-84
2022/01/13 13:12:58;;;;;;;6.90;4.85;;;16.90;44.70;;;;;;5024197;28;45245;-84
2022/01/13 13:15:46;;;;;;;6.63;4.72;;;16.80;43.90;;;;;;5023158;28;45472;-84
2022/01/13 13:18:25;;;;;;;9.68;5.18;;;17.30;48.20;;;;;;5010496;28;45114;-84
2022/01/13 13:20:56;;;;;;;9.52;4.85;;;16.60;44.00;;;;;;5034237;28;44775;-84
2022/01/13 13:23:31;;;;;;;7.72;4.95;;;16.70;44.20;;;;;;5006174;28;45113;-83
2022/01/13 13:26:06;;;;;;;7.15;4.63;;;16.70;44.60;;;;;;5024411;28;46588;-84
2022/01/13 13:28:38;;;;;;;6.90;4.60;;;16.90;47.50;;;;;;5038463;28;46375;-84
2022/01/13 13:31:16;;;;;;;6.70;4.43;;;16.90;50.00;;;;;;5034023;28;45232;-84
2022/01/13 13:33:47;;;;;;;7.32;4.53;;;16.70;44.20;;;;;;5021082;28;45079;-81
2022/01/13 13:36:19;;;;;;;6.60;4.47;;;16.70;44.50;;;;;;5024597;28;48205;-83
2022/01/13 13:38:53;;;;;;;6.88;4.47;;;16.70;44.60;;;;;;5006154;28;45444;-81
2022/01/13 13:41:33;;;;;;;8.52;5.13;;;16.70;44.50;;;;;;5017820;28;45317;-86
2022/01/13 13:44:02;;;;;;;7.55;4.50;;;17.50;48.00;;;;;;5025477;28;45387;-85
2022/01/13 13:46:30;;;;;;;6.93;4.25;;;16.60;48.60;;;;;;5032811;28;45862;-84
2022/01/13 13:48:59;;;;;;;9.27;4.80;;;16.50;46.20;;;;;;5022345;28;45127;-86
2022/01/13 13:51:34;;;;;;;7.88;4.38;;;17.00;45.70;;;;;;5017746;28;45364;-85
2022/01/13 13:54:11;;;;;;;7.18;4.60;;;16.60;44.50;;;;;;5024493;28;44911;-82
2022/01/13 13:59:41;;;;;;;5.90;4.20;;;15.00;42.80;;;;;;5025792;28;45298;-87